logo
Search for airport 
image banner adimage banner adimage banner ad
image banner ad

LKTH - Techonin

Located in Techonin, Czech Republic

ICAO - , IATA -

Data provided by Airmate  

General information

Coordinates: N50°3'37" E16°36'44"
Elevation is 1679 feet MSL.
 
View others Airports in Pardubice Region

Operational data

Special qualification required
Current time UTC:
Current local time:
Weather at : LKPD - Pardubice ( 63 km )
METAR: LKPD 241130Z 29011KT 260V330 9999 BKN043 24/13 Q1015 NOSIG RMK BLU BLU
TAF: TAF LKPD 240500Z 2406/2506 28010KT CAVOK PROB40 TEMPO 2406/2420 30015KT 7000 SHRA BKN020CB BECMG 2419/2421 29005KT
View NOTAMs / SUP AIP / TFR affecting this airport [VIEW]
Communications frequencies: [VIEW]

Runways:

Airport contact information

Address: Techonin Czech Republic

Satellite view of LKTH